sensor_id;sensor_type;location;lat;lon;timestamp;P1;durP1;ratioP1;P2;durP2;ratioP2
9465;SDS011;4771;48.726;9.006;2024-01-27T00:00:18;5.87;;;2.10;;
9465;SDS011;4771;48.726;9.006;2024-01-27T00:02:45;2.80;;;1.60;;
9465;SDS011;4771;48.726;9.006;2024-01-27T00:05:13;3.47;;;1.80;;
9465;SDS011;4771;48.726;9.006;2024-01-27T00:07:40;2.13;;;1.70;;
9465;SDS011;4771;48.726;9.006;2024-01-27T00:10:07;3.13;;;1.80;;
9465;SDS011;4771;48.726;9.006;2024-01-27T00:12:34;3.00;;;1.50;;
9465;SDS011;4771;48.726;9.006;2024-01-27T00:15:02;2.63;;;1.53;;
9465;SDS011;4771;48.726;9.006;2024-01-27T00:17:30;3.27;;;1.83;;
9465;SDS011;4771;48.726;9.006;2024-01-27T00:19:57;2.57;;;1.60;;
9465;SDS011;4771;48.726;9.006;2024-01-27T00:22:25;3.77;;;1.63;;
9465;SDS011;4771;48.726;9.006;2024-01-27T00:24:51;7.17;;;3.00;;
9465;SDS011;4771;48.726;9.006;2024-01-27T00:27:18;4.60;;;1.97;;
9465;SDS011;4771;48.726;9.006;2024-01-27T00:29:45;5.47;;;2.00;;
9465;SDS011;4771;48.726;9.006;2024-01-27T00:32:12;2.70;;;1.60;;
9465;SDS011;4771;48.726;9.006;2024-01-27T00:34:39;4.63;;;1.60;;
9465;SDS011;4771;48.726;9.006;2024-01-27T00:37:06;3.77;;;1.60;;
9465;SDS011;4771;48.726;9.006;2024-01-27T00:39:34;3.50;;;1.80;;
9465;SDS011;4771;48.726;9.006;2024-01-27T00:42:01;3.40;;;1.47;;
9465;SDS011;4771;48.726;9.006;2024-01-27T00:44:27;3.17;;;1.67;;
9465;SDS011;4771;48.726;9.006;2024-01-27T00:46:54;4.47;;;1.77;;
9465;SDS011;4771;48.726;9.006;2024-01-27T00:49:21;3.47;;;1.93;;
9465;SDS011;4771;48.726;9.006;2024-01-27T00:51:48;2.33;;;1.63;;
9465;SDS011;4771;48.726;9.006;2024-01-27T00:54:15;2.70;;;1.70;;
9465;SDS011;4771;48.726;9.006;2024-01-27T00:56:43;3.80;;;1.80;;
9465;SDS011;4771;48.726;9.006;2024-01-27T00:59:10;4.67;;;1.70;;
9465;SDS011;4771;48.726;9.006;2024-01-27T01:01:37;2.20;;;1.63;;
9465;SDS011;4771;48.726;9.006;2024-01-27T01:04:04;5.03;;;1.67;;
9465;SDS011;4771;48.726;9.006;2024-01-27T01:06:30;3.13;;;1.70;;
9465;SDS011;4771;48.726;9.006;2024-01-27T01:08:57;5.47;;;2.27;;
9465;SDS011;4771;48.726;9.006;2024-01-27T01:11:24;2.00;;;1.77;;
9465;SDS011;4771;48.726;9.006;2024-01-27T01:13:52;4.17;;;2.00;;
9465;SDS011;4771;48.726;9.006;2024-01-27T01:16:19;4.40;;;2.23;;
9465;SDS011;4771;48.726;9.006;2024-01-27T01:18:46;4.20;;;1.97;;
9465;SDS011;4771;48.726;9.006;2024-01-27T01:21:13;4.63;;;1.73;;
9465;SDS011;4771;48.726;9.006;2024-01-27T01:23:40;3.83;;;1.87;;
9465;SDS011;4771;48.726;9.006;2024-01-27T01:26:06;3.47;;;1.73;;
9465;SDS011;4771;48.726;9.006;2024-01-27T01:28:33;1.73;;;1.40;;
9465;SDS011;4771;48.726;9.006;2024-01-27T01:31:01;2.90;;;1.40;;
9465;SDS011;4771;48.726;9.006;2024-01-27T01:33:28;5.80;;;1.57;;
9465;SDS011;4771;48.726;9.006;2024-01-27T01:35:55;5.33;;;1.80;;
9465;SDS011;4771;48.726;9.006;2024-01-27T01:38:22;4.47;;;1.50;;
9465;SDS011;4771;48.726;9.006;2024-01-27T01:40:49;4.87;;;1.70;;
9465;SDS011;4771;48.726;9.006;2024-01-27T01:43:16;3.10;;;1.80;;
9465;SDS011;4771;48.726;9.006;2024-01-27T01:45:42;3.50;;;1.70;;
9465;SDS011;4771;48.726;9.006;2024-01-27T01:48:11;3.37;;;1.80;;
9465;SDS011;4771;48.726;9.006;2024-01-27T01:50:37;3.63;;;1.60;;
9465;SDS011;4771;48.726;9.006;2024-01-27T01:53:04;7.93;;;1.67;;
9465;SDS011;4771;48.726;9.006;2024-01-27T01:55:32;2.63;;;1.50;;
9465;SDS011;4771;48.726;9.006;2024-01-27T01:57:59;3.30;;;1.80;;
9465;SDS011;4771;48.726;9.006;2024-01-27T02:00:26;5.67;;;1.77;;
9465;SDS011;4771;48.726;9.006;2024-01-27T02:02:53;5.93;;;2.37;;
9465;SDS011;4771;48.726;9.006;2024-01-27T02:05:21;5.03;;;1.60;;
9465;SDS011;4771;48.726;9.006;2024-01-27T02:07:48;1.70;;;1.50;;
9465;SDS011;4771;48.726;9.006;2024-01-27T02:10:15;3.37;;;1.80;;
9465;SDS011;4771;48.726;9.006;2024-01-27T02:12:43;3.40;;;1.70;;
9465;SDS011;4771;48.726;9.006;2024-01-27T02:15:11;5.70;;;2.00;;
9465;SDS011;4771;48.726;9.006;2024-01-27T02:17:38;3.10;;;1.77;;
9465;SDS011;4771;48.726;9.006;2024-01-27T02:20:06;5.20;;;1.97;;
9465;SDS011;4771;48.726;9.006;2024-01-27T02:22:35;4.07;;;1.77;;
9465;SDS011;4771;48.726;9.006;2024-01-27T02:25:04;3.10;;;1.93;;
9465;SDS011;4771;48.726;9.006;2024-01-27T02:27:31;3.03;;;1.97;;
9465;SDS011;4771;48.726;9.006;2024-01-27T02:29:58;3.67;;;1.60;;
9465;SDS011;4771;48.726;9.006;2024-01-27T02:32:28;3.67;;;1.73;;
9465;SDS011;4771;48.726;9.006;2024-01-27T02:34:55;3.57;;;1.50;;
9465;SDS011;4771;48.726;9.006;2024-01-27T02:37:21;7.63;;;2.20;;
9465;SDS011;4771;48.726;9.006;2024-01-27T02:39:48;5.27;;;1.97;;
9465;SDS011;4771;48.726;9.006;2024-01-27T02:42:17;5.73;;;2.00;;
9465;SDS011;4771;48.726;9.006;2024-01-27T02:44:43;4.53;;;1.80;;
9465;SDS011;4771;48.726;9.006;2024-01-27T02:47:10;4.97;;;1.57;;
9465;SDS011;4771;48.726;9.006;2024-01-27T02:49:37;3.53;;;1.60;;
9465;SDS011;4771;48.726;9.006;2024-01-27T02:52:04;3.70;;;1.83;;
9465;SDS011;4771;48.726;9.006;2024-01-27T02:54:31;2.10;;;1.70;;
9465;SDS011;4771;48.726;9.006;2024-01-27T02:56:58;3.57;;;1.83;;
9465;SDS011;4771;48.726;9.006;2024-01-27T02:59:26;3.83;;;1.90;;
9465;SDS011;4771;48.726;9.006;2024-01-27T03:01:53;3.43;;;1.63;;
9465;SDS011;4771;48.726;9.006;2024-01-27T03:04:19;6.03;;;1.90;;
9465;SDS011;4771;48.726;9.006;2024-01-27T03:06:47;3.17;;;2.10;;
9465;SDS011;4771;48.726;9.006;2024-01-27T03:09:13;4.23;;;1.73;;
9465;SDS011;4771;48.726;9.006;2024-01-27T03:11:40;5.10;;;2.07;;
9465;SDS011;4771;48.726;9.006;2024-01-27T03:14:07;4.30;;;1.80;;
9465;SDS011;4771;48.726;9.006;2024-01-27T03:16:37;4.37;;;1.90;;
9465;SDS011;4771;48.726;9.006;2024-01-27T03:19:03;5.23;;;1.70;;
9465;SDS011;4771;48.726;9.006;2024-01-27T03:21:31;4.87;;;1.60;;
9465;SDS011;4771;48.726;9.006;2024-01-27T03:23:58;2.53;;;1.53;;
9465;SDS011;4771;48.726;9.006;2024-01-27T03:26:25;3.43;;;1.97;;
9465;SDS011;4771;48.726;9.006;2024-01-27T03:28:52;3.60;;;1.73;;
9465;SDS011;4771;48.726;9.006;2024-01-27T03:31:19;3.20;;;1.73;;
9465;SDS011;4771;48.726;9.006;2024-01-27T03:33:47;3.67;;;1.80;;
9465;SDS011;4771;48.726;9.006;2024-01-27T03:36:14;2.97;;;1.77;;
9465;SDS011;4771;48.726;9.006;2024-01-27T03:38:41;4.03;;;1.83;;
9465;SDS011;4771;48.726;9.006;2024-01-27T03:41:08;4.20;;;2.03;;
9465;SDS011;4771;48.726;9.006;2024-01-27T03:43:35;5.70;;;2.07;;
9465;SDS011;4771;48.726;9.006;2024-01-27T03:46:02;6.67;;;1.90;;
9465;SDS011;4771;48.726;9.006;2024-01-27T03:48:29;6.73;;;2.30;;
9465;SDS011;4771;48.726;9.006;2024-01-27T03:50:57;4.27;;;1.90;;
9465;SDS011;4771;48.726;9.006;2024-01-27T03:53:24;6.43;;;1.70;;
9465;SDS011;4771;48.726;9.006;2024-01-27T03:55:51;3.43;;;1.90;;
9465;SDS011;4771;48.726;9.006;2024-01-27T03:58:18;4.30;;;1.97;;
9465;SDS011;4771;48.726;9.006;2024-01-27T04:00:45;3.83;;;1.90;;
9465;SDS011;4771;48.726;9.006;2024-01-27T04:03:12;5.33;;;2.10;;
9465;SDS011;4771;48.726;9.006;2024-01-27T04:05:39;3.57;;;2.00;;
9465;SDS011;4771;48.726;9.006;2024-01-27T04:08:07;3.03;;;1.60;;
9465;SDS011;4771;48.726;9.006;2024-01-27T04:10:34;4.63;;;1.80;;
9465;SDS011;4771;48.726;9.006;2024-01-27T04:13:02;5.87;;;2.17;;
9465;SDS011;4771;48.726;9.006;2024-01-27T04:15:29;6.77;;;2.10;;
9465;SDS011;4771;48.726;9.006;2024-01-27T04:17:56;5.07;;;2.00;;
9465;SDS011;4771;48.726;9.006;2024-01-27T04:20:23;4.67;;;1.80;;
9465;SDS011;4771;48.726;9.006;2024-01-27T04:22:50;7.00;;;1.93;;
9465;SDS011;4771;48.726;9.006;2024-01-27T04:25:18;3.77;;;2.10;;
9465;SDS011;4771;48.726;9.006;2024-01-27T04:27:45;3.23;;;2.10;;
9465;SDS011;4771;48.726;9.006;2024-01-27T04:30:12;5.47;;;1.83;;
9465;SDS011;4771;48.726;9.006;2024-01-27T04:32:39;4.47;;;1.90;;
9465;SDS011;4771;48.726;9.006;2024-01-27T04:35:08;4.07;;;2.03;;
9465;SDS011;4771;48.726;9.006;2024-01-27T04:37:35;6.40;;;2.27;;
9465;SDS011;4771;48.726;9.006;2024-01-27T04:40:03;3.47;;;2.33;;
9465;SDS011;4771;48.726;9.006;2024-01-27T04:42:32;7.20;;;2.70;;
9465;SDS011;4771;48.726;9.006;2024-01-27T04:44:59;4.30;;;2.20;;
9465;SDS011;4771;48.726;9.006;2024-01-27T04:47:26;6.40;;;2.70;;
9465;SDS011;4771;48.726;9.006;2024-01-27T04:49:53;3.17;;;2.00;;
9465;SDS011;4771;48.726;9.006;2024-01-27T04:52:20;4.10;;;2.40;;
9465;SDS011;4771;48.726;9.006;2024-01-27T04:54:47;4.43;;;2.70;;
9465;SDS011;4771;48.726;9.006;2024-01-27T04:57:14;5.23;;;2.60;;
9465;SDS011;4771;48.726;9.006;2024-01-27T04:59:42;7.03;;;2.90;;
9465;SDS011;4771;48.726;9.006;2024-01-27T05:02:09;5.37;;;2.87;;
9465;SDS011;4771;48.726;9.006;2024-01-27T05:04:36;3.97;;;2.30;;
9465;SDS011;4771;48.726;9.006;2024-01-27T05:07:03;3.13;;;2.27;;
9465;SDS011;4771;48.726;9.006;2024-01-27T05:09:30;5.87;;;2.43;;
9465;SDS011;4771;48.726;9.006;2024-01-27T05:11:59;4.50;;;2.73;;
9465;SDS011;4771;48.726;9.006;2024-01-27T05:14:26;3.60;;;2.40;;
9465;SDS011;4771;48.726;9.006;2024-01-27T05:16:54;6.03;;;2.30;;
9465;SDS011;4771;48.726;9.006;2024-01-27T05:19:21;4.07;;;2.40;;
9465;SDS011;4771;48.726;9.006;2024-01-27T05:21:48;4.93;;;2.77;;
9465;SDS011;4771;48.726;9.006;2024-01-27T05:24:15;7.33;;;2.40;;
9465;SDS011;4771;48.726;9.006;2024-01-27T05:26:41;5.67;;;2.70;;
9465;SDS011;4771;48.726;9.006;2024-01-27T05:29:08;7.03;;;2.70;;
9465;SDS011;4771;48.726;9.006;2024-01-27T05:31:35;4.37;;;2.43;;
9465;SDS011;4771;48.726;9.006;2024-01-27T05:34:03;6.23;;;2.67;;
9465;SDS011;4771;48.726;9.006;2024-01-27T05:36:30;7.13;;;2.43;;
9465;SDS011;4771;48.726;9.006;2024-01-27T05:38:57;4.37;;;2.23;;
9465;SDS011;4771;48.726;9.006;2024-01-27T05:41:27;7.20;;;2.70;;
9465;SDS011;4771;48.726;9.006;2024-01-27T05:43:54;5.77;;;2.40;;
9465;SDS011;4771;48.726;9.006;2024-01-27T05:46:22;6.13;;;2.60;;
9465;SDS011;4771;48.726;9.006;2024-01-27T05:48:50;5.27;;;2.87;;
9465;SDS011;4771;48.726;9.006;2024-01-27T05:51:20;5.10;;;2.40;;
9465;SDS011;4771;48.726;9.006;2024-01-27T05:53:49;5.63;;;2.87;;
9465;SDS011;4771;48.726;9.006;2024-01-27T05:56:16;6.47;;;2.47;;
9465;SDS011;4771;48.726;9.006;2024-01-27T05:58:44;4.83;;;2.43;;
9465;SDS011;4771;48.726;9.006;2024-01-27T06:01:11;3.90;;;2.50;;
9465;SDS011;4771;48.726;9.006;2024-01-27T06:03:38;3.17;;;2.60;;
9465;SDS011;4771;48.726;9.006;2024-01-27T06:06:07;5.80;;;2.60;;
9465;SDS011;4771;48.726;9.006;2024-01-27T06:08:36;5.30;;;2.70;;
9465;SDS011;4771;48.726;9.006;2024-01-27T06:11:03;4.17;;;2.40;;
9465;SDS011;4771;48.726;9.006;2024-01-27T06:13:30;5.90;;;2.50;;
9465;SDS011;4771;48.726;9.006;2024-01-27T06:15:57;5.83;;;2.70;;
9465;SDS011;4771;48.726;9.006;2024-01-27T06:18:25;5.20;;;2.30;;
9465;SDS011;4771;48.726;9.006;2024-01-27T06:20:52;8.70;;;2.97;;
9465;SDS011;4771;48.726;9.006;2024-01-27T06:23:18;5.60;;;2.50;;
9465;SDS011;4771;48.726;9.006;2024-01-27T06:25:47;4.07;;;2.67;;
9465;SDS011;4771;48.726;9.006;2024-01-27T06:28:13;5.67;;;3.03;;
9465;SDS011;4771;48.726;9.006;2024-01-27T06:30:40;5.30;;;2.70;;
9465;SDS011;4771;48.726;9.006;2024-01-27T06:33:07;5.90;;;2.67;;
9465;SDS011;4771;48.726;9.006;2024-01-27T06:35:34;6.63;;;2.60;;
9465;SDS011;4771;48.726;9.006;2024-01-27T06:38:01;8.67;;;2.40;;
9465;SDS011;4771;48.726;9.006;2024-01-27T06:40:28;6.40;;;2.70;;
9465;SDS011;4771;48.726;9.006;2024-01-27T06:42:56;5.67;;;2.43;;
9465;SDS011;4771;48.726;9.006;2024-01-27T06:45:23;5.10;;;2.57;;
9465;SDS011;4771;48.726;9.006;2024-01-27T06:47:50;3.83;;;2.57;;
9465;SDS011;4771;48.726;9.006;2024-01-27T06:50:16;7.40;;;2.63;;
9465;SDS011;4771;48.726;9.006;2024-01-27T06:52:43;5.33;;;2.40;;
9465;SDS011;4771;48.726;9.006;2024-01-27T06:55:11;6.13;;;2.80;;
9465;SDS011;4771;48.726;9.006;2024-01-27T06:57:38;6.17;;;2.63;;
9465;SDS011;4771;48.726;9.006;2024-01-27T07:00:08;4.33;;;2.60;;
9465;SDS011;4771;48.726;9.006;2024-01-27T07:02:39;4.20;;;2.70;;
9465;SDS011;4771;48.726;9.006;2024-01-27T07:05:06;5.47;;;2.73;;
9465;SDS011;4771;48.726;9.006;2024-01-27T07:07:33;4.70;;;2.60;;
9465;SDS011;4771;48.726;9.006;2024-01-27T07:10:00;4.43;;;2.80;;
9465;SDS011;4771;48.726;9.006;2024-01-27T07:12:28;5.77;;;2.33;;
9465;SDS011;4771;48.726;9.006;2024-01-27T07:14:54;4.57;;;2.77;;
9465;SDS011;4771;48.726;9.006;2024-01-27T07:17:23;6.77;;;2.80;;
9465;SDS011;4771;48.726;9.006;2024-01-27T07:19:50;4.60;;;2.90;;
9465;SDS011;4771;48.726;9.006;2024-01-27T07:22:16;4.77;;;2.80;;
9465;SDS011;4771;48.726;9.006;2024-01-27T07:24:43;5.50;;;2.90;;
9465;SDS011;4771;48.726;9.006;2024-01-27T07:27:11;3.73;;;2.70;;
9465;SDS011;4771;48.726;9.006;2024-01-27T07:29:39;4.93;;;2.83;;
9465;SDS011;4771;48.726;9.006;2024-01-27T07:32:06;6.93;;;2.90;;
9465;SDS011;4771;48.726;9.006;2024-01-27T07:34:39;4.53;;;2.47;;
9465;SDS011;4771;48.726;9.006;2024-01-27T07:37:06;5.63;;;2.60;;
9465;SDS011;4771;48.726;9.006;2024-01-27T07:39:34;7.43;;;2.73;;
9465;SDS011;4771;48.726;9.006;2024-01-27T07:42:01;5.63;;;2.93;;
9465;SDS011;4771;48.726;9.006;2024-01-27T07:44:27;6.13;;;2.90;;
9465;SDS011;4771;48.726;9.006;2024-01-27T07:46:55;5.13;;;2.87;;
9465;SDS011;4771;48.726;9.006;2024-01-27T07:49:21;7.27;;;2.77;;
9465;SDS011;4771;48.726;9.006;2024-01-27T07:51:50;6.07;;;3.10;;
9465;SDS011;4771;48.726;9.006;2024-01-27T07:54:16;4.30;;;3.00;;
9465;SDS011;4771;48.726;9.006;2024-01-27T07:56:43;5.57;;;3.20;;
9465;SDS011;4771;48.726;9.006;2024-01-27T07:59:10;5.13;;;3.00;;
9465;SDS011;4771;48.726;9.006;2024-01-27T08:01:39;6.43;;;2.93;;
9465;SDS011;4771;48.726;9.006;2024-01-27T08:04:06;7.93;;;2.90;;
9465;SDS011;4771;48.726;9.006;2024-01-27T08:06:33;6.63;;;3.43;;
9465;SDS011;4771;48.726;9.006;2024-01-27T08:09:02;4.83;;;3.00;;
9465;SDS011;4771;48.726;9.006;2024-01-27T08:11:29;6.77;;;3.13;;
9465;SDS011;4771;48.726;9.006;2024-01-27T08:13:56;7.37;;;3.10;;
9465;SDS011;4771;48.726;9.006;2024-01-27T08:16:23;6.70;;;2.90;;
9465;SDS011;4771;48.726;9.006;2024-01-27T08:18:49;6.50;;;3.40;;
9465;SDS011;4771;48.726;9.006;2024-01-27T08:21:17;6.23;;;3.50;;
9465;SDS011;4771;48.726;9.006;2024-01-27T08:23:43;7.77;;;3.57;;
9465;SDS011;4771;48.726;9.006;2024-01-27T08:26:12;6.77;;;4.10;;
9465;SDS011;4771;48.726;9.006;2024-01-27T08:28:38;7.47;;;3.53;;
9465;SDS011;4771;48.726;9.006;2024-01-27T08:31:05;6.77;;;3.30;;
9465;SDS011;4771;48.726;9.006;2024-01-27T08:33:32;5.77;;;3.67;;
9465;SDS011;4771;48.726;9.006;2024-01-27T08:35:59;5.90;;;3.60;;
9465;SDS011;4771;48.726;9.006;2024-01-27T08:38:27;8.73;;;3.23;;
9465;SDS011;4771;48.726;9.006;2024-01-27T08:40:54;7.37;;;3.07;;
9465;SDS011;4771;48.726;9.006;2024-01-27T08:43:22;9.07;;;3.47;;
9465;SDS011;4771;48.726;9.006;2024-01-27T08:45:49;9.50;;;4.20;;
9465;SDS011;4771;48.726;9.006;2024-01-27T08:48:15;6.83;;;3.37;;
9465;SDS011;4771;48.726;9.006;2024-01-27T08:50:42;7.27;;;3.50;;
9465;SDS011;4771;48.726;9.006;2024-01-27T08:53:09;8.10;;;4.00;;
9465;SDS011;4771;48.726;9.006;2024-01-27T08:55:36;9.43;;;3.77;;
9465;SDS011;4771;48.726;9.006;2024-01-27T08:58:03;6.47;;;3.83;;
9465;SDS011;4771;48.726;9.006;2024-01-27T09:00:31;9.00;;;4.17;;
9465;SDS011;4771;48.726;9.006;2024-01-27T09:02:58;7.53;;;4.20;;
9465;SDS011;4771;48.726;9.006;2024-01-27T09:05:26;6.00;;;3.43;;
9465;SDS011;4771;48.726;9.006;2024-01-27T09:07:53;10.63;;;4.63;;
9465;SDS011;4771;48.726;9.006;2024-01-27T09:10:20;10.13;;;4.07;;
9465;SDS011;4771;48.726;9.006;2024-01-27T09:12:47;8.80;;;4.23;;
9465;SDS011;4771;48.726;9.006;2024-01-27T09:15:14;6.93;;;4.03;;
9465;SDS011;4771;48.726;9.006;2024-01-27T09:17:42;8.13;;;4.07;;
9465;SDS011;4771;48.726;9.006;2024-01-27T09:20:10;7.93;;;3.90;;
9465;SDS011;4771;48.726;9.006;2024-01-27T09:22:37;12.33;;;4.20;;
9465;SDS011;4771;48.726;9.006;2024-01-27T09:25:05;6.37;;;4.20;;
9465;SDS011;4771;48.726;9.006;2024-01-27T09:27:33;5.83;;;4.20;;
9465;SDS011;4771;48.726;9.006;2024-01-27T09:30:00;5.67;;;3.70;;
9465;SDS011;4771;48.726;9.006;2024-01-27T09:32:28;7.43;;;4.30;;
9465;SDS011;4771;48.726;9.006;2024-01-27T09:34:56;6.60;;;3.57;;
9465;SDS011;4771;48.726;9.006;2024-01-27T09:37:23;6.33;;;3.13;;
9465;SDS011;4771;48.726;9.006;2024-01-27T09:39:50;6.10;;;3.50;;
9465;SDS011;4771;48.726;9.006;2024-01-27T09:42:17;8.57;;;3.50;;
9465;SDS011;4771;48.726;9.006;2024-01-27T09:44:48;7.53;;;3.60;;
9465;SDS011;4771;48.726;9.006;2024-01-27T09:47:15;8.57;;;3.77;;
9465;SDS011;4771;48.726;9.006;2024-01-27T09:49:42;7.97;;;3.50;;
9465;SDS011;4771;48.726;9.006;2024-01-27T09:52:11;7.40;;;3.40;;
9465;SDS011;4771;48.726;9.006;2024-01-27T09:54:38;6.07;;;3.10;;
9465;SDS011;4771;48.726;9.006;2024-01-27T09:57:07;8.83;;;3.57;;
9465;SDS011;4771;48.726;9.006;2024-01-27T09:59:37;6.57;;;3.10;;
9465;SDS011;4771;48.726;9.006;2024-01-27T10:02:06;6.07;;;3.33;;
9465;SDS011;4771;48.726;9.006;2024-01-27T10:04:37;7.77;;;3.63;;
9465;SDS011;4771;48.726;9.006;2024-01-27T10:07:05;7.60;;;3.87;;
9465;SDS011;4771;48.726;9.006;2024-01-27T10:09:33;12.97;;;3.63;;
9465;SDS011;4771;48.726;9.006;2024-01-27T10:12:00;7.40;;;3.20;;
9465;SDS011;4771;48.726;9.006;2024-01-27T10:14:37;9.37;;;3.37;;
9465;SDS011;4771;48.726;9.006;2024-01-27T10:17:04;7.83;;;3.53;;
9465;SDS011;4771;48.726;9.006;2024-01-27T10:19:31;8.77;;;3.33;;
9465;SDS011;4771;48.726;9.006;2024-01-27T10:21:59;6.20;;;3.13;;
9465;SDS011;4771;48.726;9.006;2024-01-27T10:24:27;6.63;;;3.70;;
9465;SDS011;4771;48.726;9.006;2024-01-27T10:26:59;9.23;;;3.47;;
9465;SDS011;4771;48.726;9.006;2024-01-27T10:29:26;8.00;;;3.70;;
9465;SDS011;4771;48.726;9.006;2024-01-27T10:31:53;7.10;;;3.70;;
9465;SDS011;4771;48.726;9.006;2024-01-27T10:34:20;7.57;;;3.53;;
9465;SDS011;4771;48.726;9.006;2024-01-27T10:36:47;7.97;;;3.77;;
9465;SDS011;4771;48.726;9.006;2024-01-27T10:39:17;8.17;;;3.33;;
9465;SDS011;4771;48.726;9.006;2024-01-27T10:41:46;8.70;;;3.90;;
9465;SDS011;4771;48.726;9.006;2024-01-27T10:44:15;9.80;;;3.13;;
9465;SDS011;4771;48.726;9.006;2024-01-27T10:46:44;7.43;;;3.47;;
9465;SDS011;4771;48.726;9.006;2024-01-27T10:49:12;10.23;;;3.33;;
9465;SDS011;4771;48.726;9.006;2024-01-27T10:51:43;7.23;;;3.13;;
9465;SDS011;4771;48.726;9.006;2024-01-27T10:54:14;8.90;;;3.30;;
9465;SDS011;4771;48.726;9.006;2024-01-27T10:56:43;6.83;;;2.87;;
9465;SDS011;4771;48.726;9.006;2024-01-27T10:59:12;6.83;;;3.47;;
9465;SDS011;4771;48.726;9.006;2024-01-27T11:01:41;10.73;;;3.00;;
9465;SDS011;4771;48.726;9.006;2024-01-27T11:04:10;9.20;;;3.17;;
9465;SDS011;4771;48.726;9.006;2024-01-27T11:06:39;7.27;;;3.20;;
9465;SDS011;4771;48.726;9.006;2024-01-27T11:09:09;6.83;;;3.20;;
9465;SDS011;4771;48.726;9.006;2024-01-27T11:11:38;7.17;;;2.80;;
9465;SDS011;4771;48.726;9.006;2024-01-27T11:14:06;7.40;;;2.93;;
9465;SDS011;4771;48.726;9.006;2024-01-27T11:16:36;9.70;;;3.13;;
9465;SDS011;4771;48.726;9.006;2024-01-27T11:19:08;7.13;;;3.40;;
9465;SDS011;4771;48.726;9.006;2024-01-27T11:21:36;6.57;;;3.00;;
9465;SDS011;4771;48.726;9.006;2024-01-27T11:24:12;7.53;;;2.90;;
9465;SDS011;4771;48.726;9.006;2024-01-27T11:26:39;6.77;;;2.80;;
9465;SDS011;4771;48.726;9.006;2024-01-27T11:29:06;9.43;;;3.17;;
9465;SDS011;4771;48.726;9.006;2024-01-27T11:31:36;8.03;;;3.23;;
9465;SDS011;4771;48.726;9.006;2024-01-27T11:34:09;9.93;;;2.90;;
9465;SDS011;4771;48.726;9.006;2024-01-27T11:36:37;8.23;;;3.00;;
9465;SDS011;4771;48.726;9.006;2024-01-27T11:39:22;5.70;;;2.67;;
9465;SDS011;4771;48.726;9.006;2024-01-27T11:41:49;5.43;;;2.80;;
9465;SDS011;4771;48.726;9.006;2024-01-27T11:44:16;6.13;;;2.50;;
9465;SDS011;4771;48.726;9.006;2024-01-27T11:46:44;9.30;;;3.07;;
9465;SDS011;4771;48.726;9.006;2024-01-27T11:49:13;5.33;;;2.70;;
9465;SDS011;4771;48.726;9.006;2024-01-27T11:51:41;6.83;;;2.40;;
9465;SDS011;4771;48.726;9.006;2024-01-27T11:54:08;7.90;;;2.70;;
9465;SDS011;4771;48.726;9.006;2024-01-27T11:56:35;6.73;;;2.50;;
9465;SDS011;4771;48.726;9.006;2024-01-27T11:59:02;5.33;;;2.60;;
9465;SDS011;4771;48.726;9.006;2024-01-27T12:01:29;6.40;;;3.03;;
9465;SDS011;4771;48.726;9.006;2024-01-27T12:03:57;10.30;;;3.03;;
9465;SDS011;4771;48.726;9.006;2024-01-27T12:06:24;8.00;;;2.47;;
9465;SDS011;4771;48.726;9.006;2024-01-27T12:08:53;7.47;;;3.67;;
9465;SDS011;4771;48.726;9.006;2024-01-27T12:11:21;8.70;;;4.15;;
9465;SDS011;4771;48.726;9.006;2024-01-27T12:13:47;7.32;;;2.67;;
9465;SDS011;4771;48.726;9.006;2024-01-27T12:16:15;7.18;;;3.30;;
9465;SDS011;4771;48.726;9.006;2024-01-27T12:18:43;5.68;;;2.83;;
9465;SDS011;4771;48.726;9.006;2024-01-27T12:21:11;5.53;;;2.60;;
9465;SDS011;4771;48.726;9.006;2024-01-27T12:23:48;8.95;;;3.28;;
9465;SDS011;4771;48.726;9.006;2024-01-27T12:26:19;9.00;;;3.30;;
9465;SDS011;4771;48.726;9.006;2024-01-27T12:28:47;17.13;;;11.07;;
9465;SDS011;4771;48.726;9.006;2024-01-27T12:31:14;11.00;;;6.20;;
9465;SDS011;4771;48.726;9.006;2024-01-27T12:33:47;10.18;;;3.05;;
9465;SDS011;4771;48.726;9.006;2024-01-27T12:36:18;8.82;;;4.35;;
9465;SDS011;4771;48.726;9.006;2024-01-27T12:38:46;6.35;;;2.75;;
9465;SDS011;4771;48.726;9.006;2024-01-27T12:41:18;10.35;;;2.70;;
9465;SDS011;4771;48.726;9.006;2024-01-27T12:43:45;8.32;;;3.55;;
9465;SDS011;4771;48.726;9.006;2024-01-27T12:46:12;7.15;;;2.85;;
9465;SDS011;4771;48.726;9.006;2024-01-27T12:48:40;15.52;;;6.65;;
9465;SDS011;4771;48.726;9.006;2024-01-27T12:51:07;12.98;;;6.88;;
9465;SDS011;4771;48.726;9.006;2024-01-27T12:53:36;11.70;;;7.05;;
9465;SDS011;4771;48.726;9.006;2024-01-27T12:56:07;14.32;;;8.00;;
9465;SDS011;4771;48.726;9.006;2024-01-27T12:58:34;5.13;;;2.65;;
9465;SDS011;4771;48.726;9.006;2024-01-27T13:01:01;4.88;;;1.85;;
9465;SDS011;4771;48.726;9.006;2024-01-27T13:03:28;4.00;;;1.85;;
9465;SDS011;4771;48.726;9.006;2024-01-27T13:05:55;6.68;;;2.90;;
9465;SDS011;4771;48.726;9.006;2024-01-27T13:08:23;4.22;;;2.17;;
9465;SDS011;4771;48.726;9.006;2024-01-27T13:10:51;6.05;;;1.98;;
9465;SDS011;4771;48.726;9.006;2024-01-27T13:13:18;4.53;;;1.70;;
9465;SDS011;4771;48.726;9.006;2024-01-27T13:15:45;4.47;;;2.00;;
9465;SDS011;4771;48.726;9.006;2024-01-27T13:18:12;7.38;;;2.10;;
9465;SDS011;4771;48.726;9.006;2024-01-27T13:20:39;5.87;;;1.70;;
9465;SDS011;4771;48.726;9.006;2024-01-27T13:23:06;4.90;;;1.77;;
9465;SDS011;4771;48.726;9.006;2024-01-27T13:25:33;3.00;;;1.48;;
9465;SDS011;4771;48.726;9.006;2024-01-27T13:28:01;3.70;;;1.47;;
9465;SDS011;4771;48.726;9.006;2024-01-27T13:30:28;4.63;;;1.60;;
9465;SDS011;4771;48.726;9.006;2024-01-27T13:32:55;5.07;;;1.80;;
9465;SDS011;4771;48.726;9.006;2024-01-27T13:35:22;3.40;;;2.17;;
9465;SDS011;4771;48.726;9.006;2024-01-27T13:37:50;6.47;;;2.33;;
9465;SDS011;4771;48.726;9.006;2024-01-27T13:40:17;4.47;;;2.00;;
9465;SDS011;4771;48.726;9.006;2024-01-27T13:42:44;6.27;;;1.80;;
9465;SDS011;4771;48.726;9.006;2024-01-27T13:45:12;4.32;;;1.83;;
9465;SDS011;4771;48.726;9.006;2024-01-27T13:47:39;3.95;;;1.50;;
9465;SDS011;4771;48.726;9.006;2024-01-27T13:50:06;5.50;;;2.00;;
9465;SDS011;4771;48.726;9.006;2024-01-27T13:52:34;4.32;;;1.70;;
9465;SDS011;4771;48.726;9.006;2024-01-27T13:55:01;3.78;;;1.98;;
9465;SDS011;4771;48.726;9.006;2024-01-27T13:57:27;2.60;;;1.50;;
9465;SDS011;4771;48.726;9.006;2024-01-27T13:59:54;5.50;;;1.67;;
9465;SDS011;4771;48.726;9.006;2024-01-27T14:02:23;6.43;;;3.33;;
9465;SDS011;4771;48.726;9.006;2024-01-27T14:04:50;13.73;;;7.53;;
9465;SDS011;4771;48.726;9.006;2024-01-27T14:07:17;3.73;;;1.83;;
9465;SDS011;4771;48.726;9.006;2024-01-27T14:09:44;3.97;;;1.50;;
9465;SDS011;4771;48.726;9.006;2024-01-27T14:12:13;3.47;;;1.90;;
9465;SDS011;4771;48.726;9.006;2024-01-27T14:14:40;6.27;;;2.97;;
9465;SDS011;4771;48.726;9.006;2024-01-27T14:17:07;4.50;;;1.63;;
9465;SDS011;4771;48.726;9.006;2024-01-27T14:19:35;3.03;;;1.40;;
9465;SDS011;4771;48.726;9.006;2024-01-27T14:22:03;1.80;;;1.20;;
9465;SDS011;4771;48.726;9.006;2024-01-27T14:24:31;2.47;;;1.10;;
9465;SDS011;4771;48.726;9.006;2024-01-27T14:26:58;2.80;;;1.57;;
9465;SDS011;4771;48.726;9.006;2024-01-27T14:29:25;4.15;;;1.58;;
9465;SDS011;4771;48.726;9.006;2024-01-27T14:31:52;3.60;;;1.50;;
9465;SDS011;4771;48.726;9.006;2024-01-27T14:34:19;4.60;;;1.70;;
9465;SDS011;4771;48.726;9.006;2024-01-27T14:36:47;3.53;;;1.90;;
9465;SDS011;4771;48.726;9.006;2024-01-27T14:39:14;3.57;;;1.57;;
9465;SDS011;4771;48.726;9.006;2024-01-27T14:41:41;2.67;;;1.42;;
9465;SDS011;4771;48.726;9.006;2024-01-27T14:44:08;6.90;;;2.10;;
9465;SDS011;4771;48.726;9.006;2024-01-27T14:46:37;2.87;;;1.40;;
9465;SDS011;4771;48.726;9.006;2024-01-27T14:49:05;3.03;;;1.50;;
9465;SDS011;4771;48.726;9.006;2024-01-27T14:51:33;5.47;;;1.65;;
9465;SDS011;4771;48.726;9.006;2024-01-27T14:54:01;4.03;;;1.83;;
9465;SDS011;4771;48.726;9.006;2024-01-27T14:56:29;7.13;;;1.60;;
9465;SDS011;4771;48.726;9.006;2024-01-27T14:58:56;3.30;;;1.70;;
9465;SDS011;4771;48.726;9.006;2024-01-27T15:01:23;3.90;;;1.50;;
9465;SDS011;4771;48.726;9.006;2024-01-27T15:03:50;3.80;;;1.60;;
9465;SDS011;4771;48.726;9.006;2024-01-27T15:06:17;3.73;;;1.40;;
9465;SDS011;4771;48.726;9.006;2024-01-27T15:08:44;4.30;;;1.50;;
9465;SDS011;4771;48.726;9.006;2024-01-27T15:11:13;3.63;;;1.70;;
9465;SDS011;4771;48.726;9.006;2024-01-27T15:13:40;3.87;;;1.83;;
9465;SDS011;4771;48.726;9.006;2024-01-27T15:16:07;2.47;;;1.40;;